createdAt,value
2023-04-16T00:01:13.892Z,23.03
2023-04-16T00:03:42.990Z,23.07
2023-04-16T00:06:13.177Z,24.23
2023-04-16T00:08:43.557Z,23.27
2023-04-16T00:11:12.000Z,23.30
2023-04-16T00:13:41.374Z,22.80
2023-04-16T00:16:10.018Z,23.30
2023-04-16T00:18:38.390Z,25.60
2023-04-16T00:21:07.017Z,23.90
2023-04-16T00:23:35.555Z,24.60
2023-04-16T00:26:04.077Z,23.87
2023-04-16T00:28:32.419Z,24.23
2023-04-16T00:31:02.786Z,24.77
2023-04-16T00:33:31.388Z,24.50
2023-04-16T00:36:00.194Z,24.87
2023-04-16T00:38:32.503Z,25.30
2023-04-16T00:41:01.055Z,26.03
2023-04-16T00:43:29.093Z,26.13
2023-04-16T00:45:58.693Z,26.03
2023-04-16T00:48:28.964Z,26.37
2023-04-16T00:50:57.566Z,25.40
2023-04-16T00:53:26.388Z,25.03
2023-04-16T00:55:56.172Z,24.73
2023-04-16T00:58:25.318Z,25.47
2023-04-16T01:00:53.678Z,25.37
2023-04-16T01:03:22.233Z,25.63
2023-04-16T01:05:52.991Z,26.63
2023-04-16T01:08:23.094Z,25.03
2023-04-16T01:10:51.741Z,26.13
2023-04-16T01:13:20.220Z,24.63
2023-04-16T01:15:48.616Z,25.73
2023-04-16T01:18:17.338Z,25.80
2023-04-16T01:20:47.786Z,24.17
2023-04-16T01:23:18.493Z,26.10
2023-04-16T01:25:47.145Z,26.33
2023-04-16T01:28:16.104Z,26.03
2023-04-16T01:30:44.583Z,27.23
2023-04-16T01:33:13.396Z,25.57
2023-04-16T01:35:42.182Z,22.97
2023-04-16T01:38:12.428Z,26.23
2023-04-16T01:40:40.881Z,25.17
2023-04-16T01:43:09.349Z,26.50
2023-04-16T01:45:37.733Z,23.10
2023-04-16T01:48:06.325Z,24.50
2023-04-16T01:50:35.883Z,25.27
2023-04-16T01:53:05.261Z,23.47
2023-04-16T01:55:36.257Z,24.97
2023-04-16T01:58:05.135Z,24.63
2023-04-16T02:00:33.277Z,26.90
2023-04-16T02:03:01.817Z,27.03
2023-04-16T02:05:30.467Z,26.73
2023-04-16T02:07:58.949Z,24.57
2023-04-16T02:10:27.478Z,24.03
2023-04-16T02:12:57.108Z,25.87
2023-04-16T02:15:25.619Z,27.83
2023-04-16T02:17:56.887Z,24.53
2023-04-16T02:20:25.737Z,25.13
2023-04-16T02:22:54.161Z,26.03
2023-04-16T02:25:23.122Z,25.13
2023-04-16T02:27:51.628Z,26.90
2023-04-16T02:30:21.257Z,26.13
2023-04-16T02:32:49.843Z,27.43
2023-04-16T02:35:18.575Z,26.67
2023-04-16T02:37:47.002Z,28.47
2023-04-16T02:40:15.445Z,25.23
2023-04-16T02:42:43.905Z,24.63
2023-04-16T02:45:12.839Z,27.47
2023-04-16T02:47:42.679Z,25.43
2023-04-16T02:50:11.458Z,26.03
2023-04-16T02:52:39.586Z,26.27
2023-04-16T02:55:08.840Z,27.67
2023-04-16T02:57:37.237Z,25.90
2023-04-16T03:00:06.092Z,27.60
2023-04-16T03:02:35.718Z,26.13
2023-04-16T03:05:06.034Z,26.47
2023-04-16T03:07:34.405Z,25.30
2023-04-16T03:10:03.381Z,25.30
2023-04-16T03:12:31.883Z,27.10
2023-04-16T03:15:00.867Z,27.23
2023-04-16T03:17:32.215Z,26.70
2023-04-16T03:20:00.846Z,26.60
2023-04-16T03:22:30.569Z,26.87
2023-04-16T03:25:01.914Z,25.30
2023-04-16T03:27:31.245Z,28.27
2023-04-16T03:29:59.713Z,26.80
2023-04-16T03:32:28.587Z,28.33
2023-04-16T03:34:56.996Z,27.27
2023-04-16T03:37:25.308Z,26.77
2023-04-16T03:39:55.015Z,27.27
2023-04-16T03:42:23.477Z,27.63
2023-04-16T03:44:53.213Z,26.40
2023-04-16T03:47:21.772Z,27.77
2023-04-16T03:49:50.976Z,28.27
2023-04-16T03:52:19.781Z,26.73
2023-04-16T03:54:47.903Z,26.97
2023-04-16T03:57:17.676Z,27.73
2023-04-16T03:59:46.112Z,27.10
2023-04-16T04:02:14.809Z,25.13
2023-04-16T04:04:43.182Z,27.37
2023-04-16T04:07:11.811Z,27.27
2023-04-16T04:09:40.281Z,26.17
2023-04-16T04:12:10.057Z,26.67
2023-04-16T04:14:40.879Z,27.10
2023-04-16T04:17:10.527Z,26.40
2023-04-16T04:19:44.517Z,27.10
2023-04-16T04:22:19.813Z,26.73
2023-04-16T04:24:49.018Z,27.50
2023-04-16T04:27:17.320Z,27.27
2023-04-16T04:29:47.948Z,28.40
2023-04-16T04:32:16.352Z,27.70
2023-04-16T04:34:44.779Z,27.03
2023-04-16T04:37:13.288Z,26.47
2023-04-16T04:39:41.733Z,29.57
2023-04-16T04:42:10.061Z,29.07
2023-04-16T04:44:38.408Z,27.30
2023-04-16T04:47:08.286Z,28.00
2023-04-16T04:49:36.962Z,27.73
2023-04-16T04:52:06.118Z,29.37
2023-04-16T04:54:34.779Z,26.90
2023-04-16T04:57:03.280Z,27.80
2023-04-16T04:59:33.853Z,26.83
2023-04-16T05:02:03.417Z,27.03
2023-04-16T05:04:33.329Z,27.87
2023-04-16T05:07:02.778Z,25.97
2023-04-16T05:09:31.444Z,27.07
2023-04-16T05:12:00.374Z,28.73
2023-04-16T05:14:29.420Z,25.07
2023-04-16T05:16:58.174Z,25.00
2023-04-16T05:19:26.726Z,25.37
2023-04-16T05:21:57.802Z,23.57
2023-04-16T05:24:26.416Z,23.53
2023-04-16T05:26:54.948Z,22.60
2023-04-16T05:29:23.496Z,25.03
2023-04-16T05:31:52.045Z,23.93
2023-04-16T05:34:20.598Z,25.00
2023-04-16T05:36:49.233Z,23.77
2023-04-16T05:39:19.824Z,24.47
2023-04-16T05:41:48.466Z,24.80
2023-04-16T05:44:18.023Z,24.83
2023-04-16T05:46:46.426Z,24.90
2023-04-16T05:49:15.853Z,25.80
2023-04-16T05:51:45.658Z,24.37
2023-04-16T05:54:14.037Z,25.83
2023-04-16T05:56:44.247Z,24.53
2023-04-16T05:59:12.907Z,22.87
2023-04-16T06:01:41.279Z,24.73
2023-04-16T06:04:09.779Z,25.50
2023-04-16T06:06:38.551Z,22.73
2023-04-16T06:09:07.117Z,23.13
2023-04-16T06:11:36.502Z,22.63
2023-04-16T06:14:06.533Z,27.93
2023-04-16T06:16:35.068Z,21.77
2023-04-16T06:19:04.533Z,23.27
2023-04-16T06:21:33.526Z,22.57
2023-04-16T06:24:01.950Z,23.93
2023-04-16T06:26:30.047Z,23.47
2023-04-16T06:28:58.426Z,24.97
2023-04-16T06:31:28.427Z,23.07
2023-04-16T06:33:56.799Z,24.37
2023-04-16T06:36:25.255Z,22.57
2023-04-16T06:38:53.913Z,24.13
2023-04-16T06:41:22.738Z,25.37
2023-04-16T06:43:51.409Z,23.53
2023-04-16T06:46:20.126Z,24.83
2023-04-16T06:48:50.169Z,23.93
2023-04-16T06:51:18.242Z,22.03
2023-04-16T06:53:46.829Z,24.77
2023-04-16T06:56:14.924Z,22.90
2023-04-16T06:58:43.370Z,22.87
2023-04-16T07:01:12.114Z,24.63
2023-04-16T07:03:40.743Z,25.83
2023-04-16T07:06:12.179Z,25.20
2023-04-16T07:08:40.585Z,26.60
2023-04-16T07:11:09.107Z,26.60
2023-04-16T07:13:37.702Z,25.40
2023-04-16T07:16:06.569Z,25.00
2023-04-16T07:18:35.122Z,24.57
2023-04-16T07:21:04.512Z,24.83
2023-04-16T07:23:34.427Z,24.67
2023-04-16T07:26:03.269Z,25.80
2023-04-16T07:28:31.837Z,24.97
2023-04-16T07:31:00.474Z,23.67
2023-04-16T07:33:29.194Z,24.30
2023-04-16T07:35:57.919Z,25.03
2023-04-16T07:38:26.186Z,24.30
2023-04-16T07:40:56.877Z,22.93
2023-04-16T07:43:27.085Z,26.17
2023-04-16T07:45:55.615Z,24.27
2023-04-16T07:48:23.977Z,25.17
2023-04-16T07:50:52.403Z,25.30
2023-04-16T07:53:20.905Z,25.00
2023-04-16T07:55:49.536Z,25.93
2023-04-16T07:58:19.200Z,24.53
2023-04-16T08:00:47.752Z,24.90
2023-04-16T08:03:18.301Z,26.13
2023-04-16T08:05:46.965Z,24.57
2023-04-16T08:08:15.664Z,24.97
2023-04-16T08:10:44.202Z,24.87
2023-04-16T08:13:12.605Z,24.73
2023-04-16T08:15:42.367Z,24.83
2023-04-16T08:18:15.556Z,26.33
2023-04-16T08:20:44.211Z,24.30
2023-04-16T08:23:12.314Z,25.23
2023-04-16T08:25:40.891Z,25.63
2023-04-16T08:28:09.094Z,24.93
2023-04-16T08:30:37.399Z,25.07
2023-04-16T08:33:07.101Z,26.37
2023-04-16T08:35:36.627Z,24.83
2023-04-16T08:38:05.462Z,25.60
2023-04-16T08:40:36.123Z,24.53
2023-04-16T08:43:04.986Z,24.10
2023-04-16T08:45:36.220Z,25.37
2023-04-16T08:48:06.899Z,23.83
2023-04-16T08:50:37.206Z,24.87
2023-04-16T08:53:07.346Z,23.90
2023-04-16T08:55:39.183Z,22.73
2023-04-16T08:58:12.919Z,22.40
2023-04-16T09:00:42.118Z,23.70
2023-04-16T09:03:11.342Z,21.00
2023-04-16T09:05:42.856Z,22.30
2023-04-16T09:08:11.404Z,22.27
2023-04-16T09:10:39.895Z,23.27
2023-04-16T09:13:09.401Z,23.20
2023-04-16T09:15:38.091Z,22.07
2023-04-16T09:18:06.464Z,21.20
2023-04-16T09:20:35.082Z,20.67
2023-04-16T09:23:04.895Z,21.73
2023-04-16T09:25:35.809Z,21.07
2023-04-16T09:28:04.309Z,20.83
2023-04-16T09:30:33.414Z,19.67
2023-04-16T09:33:16.536Z,20.17
2023-04-16T09:35:48.639Z,18.13
2023-04-16T09:38:18.880Z,20.23
2023-04-16T09:40:48.195Z,19.87
2023-04-16T09:43:17.251Z,19.87
2023-04-16T09:45:52.408Z,19.13
2023-04-16T09:48:30.045Z,19.27
2023-04-16T09:50:58.628Z,18.30
2023-04-16T09:53:30.127Z,20.13
2023-04-16T09:55:58.818Z,19.27
2023-04-16T09:58:27.418Z,20.50
2023-04-16T10:00:58.400Z,20.90
2023-04-16T10:03:33.501Z,21.07
2023-04-16T10:06:03.343Z,19.97
2023-04-16T10:08:32.794Z,18.90
2023-04-16T10:11:01.315Z,18.67
2023-04-16T10:13:31.327Z,18.43
2023-04-16T10:16:00.919Z,19.07
2023-04-16T10:18:29.448Z,18.80
2023-04-16T10:20:58.854Z,18.27
2023-04-16T10:23:27.852Z,18.97
2023-04-16T10:25:58.382Z,17.83
2023-04-16T10:28:27.106Z,19.00
2023-04-16T10:30:58.162Z,18.23
2023-04-16T10:33:28.703Z,17.20
2023-04-16T10:36:10.437Z,17.30
2023-04-16T10:38:41.184Z,18.10
2023-04-16T10:41:10.770Z,18.57
2023-04-16T10:43:43.844Z,18.53
2023-04-16T10:46:26.556Z,17.77
2023-04-16T10:48:56.411Z,17.10
2023-04-16T10:51:31.491Z,16.63
2023-04-16T10:54:05.247Z,17.13
2023-04-16T10:56:36.845Z,17.20
2023-04-16T10:59:07.196Z,15.77
2023-04-16T11:01:37.269Z,15.80
2023-04-16T11:04:44.100Z,17.90
2023-04-16T11:07:18.914Z,17.20
2023-04-16T11:09:52.610Z,17.27
2023-04-16T11:12:23.553Z,16.40
2023-04-16T11:14:53.068Z,16.77
2023-04-16T11:17:22.291Z,17.70
2023-04-16T11:19:50.703Z,16.07
2023-04-16T11:22:22.064Z,17.07
2023-04-16T11:24:56.052Z,16.30
2023-04-16T11:27:27.435Z,16.07
2023-04-16T11:30:00.301Z,16.67
2023-04-16T11:32:28.546Z,16.70
2023-04-16T11:34:56.887Z,15.57
2023-04-16T11:37:34.348Z,16.83
2023-04-16T11:40:04.632Z,17.40
2023-04-16T11:42:37.189Z,15.53
2023-04-16T11:45:06.439Z,15.37
2023-04-16T11:47:44.822Z,16.90
2023-04-16T11:50:20.864Z,14.93
2023-04-16T11:52:49.508Z,16.43
2023-04-16T11:55:17.715Z,15.60
2023-04-16T11:57:47.662Z,15.70
2023-04-16T12:00:16.330Z,15.97
2023-04-16T12:02:46.111Z,16.90
2023-04-16T12:05:31.965Z,16.67
2023-04-16T12:08:03.347Z,15.77
2023-04-16T12:10:35.108Z,16.10
2023-04-16T12:13:15.239Z,16.30
2023-04-16T12:15:48.669Z,14.60
2023-04-16T12:18:17.268Z,15.20
2023-04-16T12:20:46.356Z,16.20
2023-04-16T12:23:24.774Z,14.23
2023-04-16T12:25:54.358Z,14.57
2023-04-16T12:28:31.944Z,16.67
2023-04-16T12:31:00.156Z,15.80
2023-04-16T12:33:28.803Z,15.17
2023-04-16T12:35:57.266Z,16.17
2023-04-16T12:38:26.874Z,15.57
2023-04-16T12:40:57.264Z,15.50
2023-04-16T12:43:26.281Z,15.20
2023-04-16T12:45:56.024Z,14.63
2023-04-16T12:48:24.810Z,16.33
2023-04-16T12:50:55.453Z,14.63
2023-04-16T12:53:23.501Z,15.20
2023-04-16T12:55:52.112Z,14.77
2023-04-16T12:58:20.651Z,16.50
2023-04-16T13:00:49.191Z,14.40
2023-04-16T13:03:18.962Z,14.17
2023-04-16T13:05:47.734Z,14.63
2023-04-16T13:08:16.507Z,14.53
2023-04-16T13:10:45.036Z,14.83
2023-04-16T13:13:13.129Z,13.13
2023-04-16T13:15:41.685Z,13.97
2023-04-16T13:18:10.332Z,13.87
2023-04-16T13:20:40.916Z,14.07
2023-04-16T13:23:08.984Z,14.63
2023-04-16T13:25:37.443Z,15.53
2023-04-16T13:28:05.877Z,13.77
2023-04-16T13:30:34.449Z,14.70
2023-04-16T13:33:03.154Z,14.87
2023-04-16T13:35:31.714Z,14.23
2023-04-16T13:38:01.137Z,13.60
2023-04-16T13:40:29.233Z,14.00
2023-04-16T13:42:57.757Z,14.20
2023-04-16T13:45:27.821Z,13.83
2023-04-16T13:47:56.319Z,12.77
2023-04-16T13:50:24.743Z,13.13
2023-04-16T13:52:52.952Z,14.70
2023-04-16T13:55:22.413Z,14.13
2023-04-16T13:57:52.516Z,14.07
2023-04-16T14:00:20.988Z,12.97
2023-04-16T14:02:50.054Z,14.40
2023-04-16T14:05:19.636Z,13.23
2023-04-16T14:07:48.158Z,13.07
2023-04-16T14:10:16.687Z,12.80
2023-04-16T14:12:47.308Z,12.47
2023-04-16T14:15:15.954Z,13.00
2023-04-16T14:17:44.493Z,12.93
2023-04-16T14:20:13.806Z,13.67
2023-04-16T14:22:43.857Z,12.37
2023-04-16T14:25:12.278Z,12.77
2023-04-16T14:27:41.283Z,11.63
2023-04-16T14:30:11.941Z,13.43
2023-04-16T14:32:40.599Z,12.57
2023-04-16T14:35:10.159Z,13.07
2023-04-16T14:37:39.075Z,12.53
2023-04-16T14:40:09.662Z,12.10
2023-04-16T14:42:38.068Z,12.87
2023-04-16T14:45:07.849Z,11.73
2023-04-16T14:47:38.169Z,12.50
2023-04-16T14:50:07.322Z,12.77
2023-04-16T14:52:35.795Z,12.23
2023-04-16T14:55:05.535Z,11.67
2023-04-16T14:57:33.679Z,10.63
2023-04-16T15:00:02.178Z,12.37
2023-04-16T15:02:31.076Z,11.60
2023-04-16T15:05:01.509Z,11.80
2023-04-16T15:07:30.011Z,13.07
2023-04-16T15:09:58.380Z,11.97
2023-04-16T15:12:27.182Z,11.87
2023-04-16T15:14:55.503Z,12.97
2023-04-16T15:17:23.961Z,11.83
2023-04-16T15:19:52.964Z,12.83
2023-04-16T15:22:22.414Z,12.47
2023-04-16T15:24:51.278Z,11.80
2023-04-16T15:27:20.993Z,12.27
2023-04-16T15:29:49.600Z,12.17
2023-04-16T15:32:18.849Z,13.33
2023-04-16T15:34:47.539Z,12.73
2023-04-16T15:37:16.253Z,12.90
2023-04-16T15:39:45.786Z,12.43
2023-04-16T15:42:14.218Z,12.20
2023-04-16T15:44:42.318Z,12.37
2023-04-16T15:47:10.424Z,12.43
2023-04-16T15:49:38.794Z,13.17
2023-04-16T15:52:07.176Z,12.63
2023-04-16T15:54:35.852Z,12.60
2023-04-16T15:57:05.518Z,12.60
2023-04-16T15:59:33.939Z,12.63
2023-04-16T16:02:02.619Z,13.07
2023-04-16T16:04:31.271Z,12.57
2023-04-16T16:06:59.731Z,12.43
2023-04-16T16:09:28.079Z,12.57
2023-04-16T16:11:57.922Z,12.93
2023-04-16T16:14:27.970Z,11.87
2023-04-16T16:16:56.313Z,12.43
2023-04-16T16:19:24.846Z,12.10
2023-04-16T16:21:53.100Z,12.13
2023-04-16T16:24:21.459Z,12.90
2023-04-16T16:26:49.781Z,12.53
2023-04-16T16:29:18.158Z,12.57
2023-04-16T16:31:47.634Z,12.50
2023-04-16T16:34:20.909Z,12.33
2023-04-16T16:36:50.040Z,12.43
2023-04-16T16:39:18.726Z,11.27
2023-04-16T16:41:52.077Z,12.40
2023-04-16T16:44:20.664Z,12.10
2023-04-16T16:46:50.577Z,11.60
2023-04-16T16:49:19.220Z,11.87
2023-04-16T16:51:47.768Z,12.50
2023-04-16T16:54:16.320Z,12.23
2023-04-16T16:56:44.960Z,12.40
2023-04-16T16:59:13.604Z,12.23
2023-04-16T17:01:42.541Z,12.67
2023-04-16T17:04:12.198Z,12.63
2023-04-16T17:06:40.570Z,12.57
2023-04-16T17:09:08.965Z,12.77
2023-04-16T17:11:37.805Z,12.20
2023-04-16T17:14:07.668Z,12.87
2023-04-16T17:16:36.919Z,13.93
2023-04-16T17:19:06.711Z,14.83
2023-04-16T17:21:37.153Z,15.47
2023-04-16T17:24:06.069Z,14.93
2023-04-16T17:26:35.694Z,16.13
2023-04-16T17:29:05.391Z,15.27
2023-04-16T17:31:35.560Z,14.87
2023-04-16T17:34:06.596Z,16.13
2023-04-16T17:36:38.179Z,16.03
2023-04-16T17:39:09.196Z,15.07
2023-04-16T17:41:38.981Z,14.47
2023-04-16T17:44:11.125Z,14.80
2023-04-16T17:46:41.381Z,16.00
2023-04-16T17:49:11.036Z,16.37
2023-04-16T17:51:44.621Z,15.73
2023-04-16T17:54:14.579Z,15.73
2023-04-16T17:56:44.057Z,15.37
2023-04-16T17:59:12.843Z,16.67
2023-04-16T18:01:42.823Z,17.67
2023-04-16T18:04:13.126Z,16.73
2023-04-16T18:06:44.424Z,16.00
2023-04-16T18:09:14.891Z,14.57
2023-04-16T18:11:45.012Z,15.30
2023-04-16T18:14:20.014Z,15.67
2023-04-16T18:16:49.986Z,16.27
2023-04-16T18:19:20.385Z,17.50
2023-04-16T18:21:50.051Z,16.70
2023-04-16T18:24:18.404Z,15.60
2023-04-16T18:26:47.278Z,19.80
2023-04-16T18:29:17.198Z,18.90
2023-04-16T18:31:46.573Z,15.57
2023-04-16T18:34:14.912Z,16.73
2023-04-16T18:36:43.461Z,16.90
2023-04-16T18:39:13.120Z,17.73
2023-04-16T18:41:42.223Z,16.70
2023-04-16T18:44:10.967Z,18.47
2023-04-16T18:46:39.045Z,18.10
2023-04-16T18:49:07.443Z,16.60
2023-04-16T18:51:35.793Z,19.10
2023-04-16T18:54:04.445Z,17.13
2023-04-16T18:56:33.951Z,16.90
2023-04-16T18:59:02.632Z,17.43
2023-04-16T19:01:31.127Z,15.93
2023-04-16T19:04:00.167Z,16.67
2023-04-16T19:06:29.335Z,17.13
2023-04-16T19:08:57.724Z,18.50
2023-04-16T19:11:26.144Z,18.93
2023-04-16T19:13:55.940Z,26.47
2023-04-16T19:16:24.398Z,22.87
2023-04-16T19:18:52.509Z,21.63
2023-04-16T19:21:23.771Z,21.90
2023-04-16T19:23:52.225Z,22.17
2023-04-16T19:26:21.320Z,22.33
2023-04-16T19:28:49.418Z,21.03
2023-04-16T19:31:18.938Z,21.60
2023-04-16T19:33:47.605Z,21.47
2023-04-16T19:36:18.163Z,20.83
2023-04-16T19:38:46.820Z,19.83
2023-04-16T19:41:15.923Z,19.10
2023-04-16T19:43:44.459Z,20.20
2023-04-16T19:46:12.995Z,19.43
2023-04-16T19:48:43.540Z,18.67
2023-04-16T19:51:12.653Z,20.30
2023-04-16T19:53:42.252Z,18.60
2023-04-16T19:56:10.444Z,17.80
2023-04-16T19:58:39.277Z,17.03
2023-04-16T20:01:11.101Z,18.43
2023-04-16T20:03:39.767Z,17.17
2023-04-16T20:06:09.436Z,18.07
2023-04-16T20:08:37.996Z,17.70
2023-04-16T20:11:08.547Z,18.33
2023-04-16T20:13:37.685Z,16.97
2023-04-16T20:16:08.331Z,17.53
2023-04-16T20:18:41.296Z,19.53
2023-04-16T20:21:11.061Z,18.60
2023-04-16T20:23:39.632Z,19.23
2023-04-16T20:26:08.059Z,19.20
2023-04-16T20:28:36.718Z,18.37
2023-04-16T20:31:05.223Z,19.07
2023-04-16T20:33:33.725Z,17.70
2023-04-16T20:36:02.364Z,17.53
2023-04-16T20:38:32.574Z,17.47
2023-04-16T20:41:09.978Z,17.83
2023-04-16T20:43:41.004Z,18.90
2023-04-16T20:46:09.641Z,19.63
2023-04-16T20:48:38.561Z,18.47
2023-04-16T20:51:09.493Z,16.97
2023-04-16T20:53:39.190Z,19.43
2023-04-16T20:56:09.188Z,18.67
2023-04-16T20:58:37.640Z,18.17
2023-04-16T21:01:06.154Z,17.93
2023-04-16T21:03:34.881Z,18.57
2023-04-16T21:06:03.596Z,19.13
2023-04-16T21:08:32.247Z,19.57
2023-04-16T21:11:01.800Z,19.23
2023-04-16T21:13:29.871Z,20.27
2023-04-16T21:15:57.952Z,21.50
2023-04-16T21:18:26.556Z,21.47
2023-04-16T21:20:54.889Z,24.20
2023-04-16T21:23:23.304Z,20.83
2023-04-16T21:25:51.818Z,22.67
2023-04-16T21:28:21.368Z,24.70
2023-04-16T21:30:52.645Z,22.10
2023-04-16T21:33:21.270Z,25.20
2023-04-16T21:35:53.088Z,24.73
2023-04-16T21:38:21.466Z,23.33
2023-04-16T21:40:51.276Z,23.67
2023-04-16T21:43:20.979Z,22.87
2023-04-16T21:45:49.378Z,22.70
2023-04-16T21:48:17.758Z,22.03
2023-04-16T21:50:46.298Z,19.90
2023-04-16T21:53:15.126Z,18.70
2023-04-16T21:55:43.215Z,19.40
2023-04-16T21:58:11.781Z,19.10
2023-04-16T22:00:41.234Z,19.23
2023-04-16T22:03:12.371Z,17.83
2023-04-16T22:05:40.535Z,18.50
2023-04-16T22:08:23.528Z,18.23
2023-04-16T22:10:52.822Z,17.10
2023-04-16T22:13:22.741Z,16.93
2023-04-16T22:15:52.690Z,16.47
2023-04-16T22:18:21.111Z,17.53
2023-04-16T22:20:50.955Z,18.23
2023-04-16T22:23:19.066Z,17.30
2023-04-16T22:25:47.443Z,18.30
2023-04-16T22:28:15.805Z,18.90
2023-04-16T22:30:44.186Z,18.73
2023-04-16T22:33:13.762Z,18.17
2023-04-16T22:35:42.376Z,18.50
2023-04-16T22:38:11.349Z,17.80
2023-04-16T22:40:39.777Z,19.03
2023-04-16T22:43:08.178Z,16.90
2023-04-16T22:45:37.587Z,18.23
2023-04-16T22:48:06.112Z,18.43
2023-04-16T22:50:35.543Z,17.37
2023-04-16T22:53:03.649Z,18.03
2023-04-16T22:55:32.065Z,18.00
2023-04-16T22:58:00.541Z,17.73
2023-04-16T23:00:28.978Z,18.60
2023-04-16T23:02:57.506Z,18.10
2023-04-16T23:05:26.077Z,18.87
2023-04-16T23:07:55.601Z,18.37
2023-04-16T23:10:24.089Z,17.83
2023-04-16T23:12:52.433Z,19.80
2023-04-16T23:15:21.002Z,18.50
2023-04-16T23:17:49.786Z,18.23
2023-04-16T23:20:17.980Z,18.47
2023-04-16T23:22:46.582Z,18.10
2023-04-16T23:25:18.085Z,19.00
2023-04-16T23:27:46.690Z,18.73
2023-04-16T23:30:15.798Z,17.60
2023-04-16T23:32:44.339Z,18.47
2023-04-16T23:35:12.433Z,19.03
2023-04-16T23:37:40.965Z,18.97
2023-04-16T23:40:10.393Z,17.80
2023-04-16T23:42:39.982Z,17.50
2023-04-16T23:45:08.888Z,18.57
2023-04-16T23:47:37.313Z,17.57
2023-04-16T23:50:06.333Z,17.03
2023-04-16T23:52:34.535Z,18.00
2023-04-16T23:55:03.453Z,18.57
2023-04-16T23:57:31.847Z,17.50
